Airfield :
LOGIN :

Register | Disclaimer

   EN    FR    IT 

 










Legend :    VFR   Marginal VFR   IFR   Intensive IFR   Very Intensive IFR
Visi :
Ceiling :
>= 8 km
>= 3000ft
5 to 8 km
1000 to 3000 ft
1500m to 5 km
500 to 1000 ft
800 to 1500m
200 to 500 ft
< 800m
< 200 ft
Symbols :   Thunderstorms  Fog  Heavy snow  Heavy precipitations  Wind > 20 kt
SIGMETs :     Misc.  Thunderstorms  Icing  Turbulence  Mountain Waves  Volcanic Ashes






- Airport Elevation : 38 ft
- IATA code : BOH


EGHH - Bournemouth

CURRENT METAR :
  • 041150Z 29010KT 230V320 9999 FEW042 22/10 Q1022

EXPIRED METARs :
  • 041120Z 30007KT 230V320 9999 SCT039 19/09 Q1022
  • 041050Z 27009KT 220V320 9999 SCT038 19/09 Q1022
  • 041020Z 28009KT 210V360 9999 BKN036 19/10 Q1022
  • 040950Z 26008KT 210V360 9999 BKN034 18/09 Q1022
  • 040920Z 26006KT 200V320 9999 FEW028 SCT032 18/11 Q1022

TAF TAF EGHH
Valid from the 04 at 12:00 until the 04 at 21:00 UTC


041058Z 0412/0421 28009KT 9999 SCT035
ATIS : +44 1202 364 151
Met : +44 1202 364 158 (TAF)



MET'MAP, your aeronautical weather chart ! - Copyright ORBIFLY December 2007 - Disclaimer

ORBIFLY MET'MAP TEAM :

Programming & Development : Alexandra Zaïnal
Original concept : Baudouin d'Aumeries
Technical & hardware support : Manuel Goepfert
Assistance : Marc-Olivier Méhu




SOURCES & CREDITS :

   NOAA